Aplicació Alertes

Dades de l'estació automàtica Benissanet

?
?
Resum diari 22:00 TU
Dades diàries de l'estació meteorològica
Temperatura mitjana 8.0 °C
Temperatura màxima 12.8 °C 14:31 TU
Temperatura mínima 2.2 °C 7:49 TU
Humitat relativa mitjana 58%
Precipitació acumulada 0.0 mm
Ratxa màxima del vent (10 m) 31.3 km/h - 290º 13:27 TU
Irradiació solar global 9.4 MJ/m2

El tram horari està expressat en Temps Universal (TU). Cal sumar una hora en horari d'hivern i dues en horari d'estiu per passar a l'hora oficial.

Benissanet

Metadades estació meteorol´gica
Municipi Benissanet
Comarca Ribera d'Ebre
Altitud 32 m
Data alta 14.07.1993
Estat actual Operativa
Dades de període
Període
TU
TM
°C
TX
°C
TN
°C
HRM
%
PPT
mm
VVM (10 m)
km/h
DVM (10 m)
graus
VVX (10 m)
km/h
RS
W/m2
00:00 - 00:30 6.2 6.5 5.8 66 0.0 5.0 307 16.2 0
00:30 - 01:00 5.6 6.4 4.9 68 0.0 10.1 298 24.8 0
01:00 - 01:30 6.0 6.4 5.7 66 0.0 7.6 305 19.8 0
01:30 - 02:00 5.5 6.0 5.3 68 0.0 6.1 315 14.8 0
02:00 - 02:30 5.8 6.2 5.5 67 0.0 5.4 334 19.4 0
02:30 - 03:00 6.3 6.6 6.0 65 0.0 7.2 293 21.2 0
03:00 - 03:30 6.1 6.4 5.8 65 0.0 5.4 303 13.7 0
03:30 - 04:00 5.8 6.3 5.4 64 0.0 3.6 283 12.6 0
04:00 - 04:30 5.8 6.1 5.3 63 0.0 12.2 305 27.0 0
04:30 - 05:00 5.5 5.9 5.0 65 0.0 11.5 278 19.8 0
05:00 - 05:30 4.8 5.5 4.4 68 0.0 11.9 293 18.4 0
05:30 - 06:00 5.3 5.6 5.0 67 0.0 15.1 306 25.9 0
06:00 - 06:30 5.2 5.4 4.8 69 0.0 13.3 311 24.5 0
06:30 - 07:00 4.6 4.8 4.4 72 0.0 9.7 352 16.2 0
07:00 - 07:30 3.7 4.7 3.1 75 0.0 7.9 9 15.1 2
07:30 - 08:00 2.7 3.3 2.2 80 0.0 9.4 13 16.6 31
08:00 - 08:30 3.6 4.3 3.2 76 0.0 7.9 7 12.2 98
08:30 - 09:00 5.2 6.4 4.3 70 0.0 7.9 11 13.7 169
09:00 - 09:30 6.9 7.5 6.4 65 0.0 8.3 26 17.6 240
09:30 - 10:00 8.3 9.1 7.5 60 0.0 12.2 331 23.4 309
10:00 - 10:30 9.3 9.7 9.0 55 0.0 16.2 298 29.5 374
10:30 - 11:00 10.0 10.4 9.5 52 0.0 16.6 303 26.6 421
11:00 - 11:30 10.6 11.0 10.2 50 0.0 12.6 291 26.6 454
11:30 - 12:00 11.4 11.8 10.9 46 0.0 12.6 282 21.6 472
12:00 - 12:30 11.7 12.0 11.5 43 0.0 15.5 270 28.4 477
12:30 - 13:00 12.2 12.6 11.8 42 0.0 14.4 265 26.6 464
13:00 - 13:30 12.5 12.7 12.3 39 0.0 18.4 288 31.3 437
13:30 - 14:00 12.5 12.7 12.4 38 0.0 20.5 287 30.6 396
14:00 - 14:30 12.6 12.7 12.5 38 0.0 19.8 282 31.3 344
14:30 - 15:00 12.6 12.8 12.5 38 0.0 16.2 285 30.6 279
15:00 - 15:30 12.4 12.6 12.3 38 0.0 15.1 292 31.0 200
15:30 - 16:00 12.1 12.5 11.7 39 0.0 11.2 294 20.9 111
16:00 - 16:30 10.8 11.6 10.0 43 0.0 6.1 302 11.9 20
16:30 - 17:00 9.5 10.4 8.1 47 0.0 5.4 291 18.0 0
17:00 - 17:30 7.9 8.6 7.1 52 0.0 1.8 239 6.1 0
17:30 - 18:00 6.4 7.2 5.8 58 0.0 2.2 273 10.8 0
18:00 - 18:30 6.9 8.6 6.0 61 0.0 7.2 301 13.3 0
18:30 - 19:00 8.9 10.3 7.6 56 0.0 8.3 284 20.9 0
19:00 - 19:30 7.9 8.7 7.2 60 0.0 6.8 294 14.4 0
19:30 - 20:00 8.3 8.8 8.1 58 0.0 9.4 348 16.9 0
20:00 - 20:30 8.8 9.1 8.5 57 0.0 9.0 357 18.7 0
20:30 - 21:00 8.4 8.9 7.9 60 0.0 9.4 307 22.0 0
21:00 - 21:30 8.2 8.4 7.9 62 0.0 10.4 328 18.0 0
21:30 - 22:00 8.5 8.9 8.2 63 0.0 14.8 295 28.1 0
22:00 - 22:30 8.7 9.2 8.4 62 0.0 9.4 273 22.3 0
22:30 - 23:00 (s/d) (s/d) (s/d) (s/d) (s/d) (s/d) (s/d) (s/d) (s/d)

Les dades en taronja només han passat un control de qualitat automàtic. Resta pendent la seva validació definitiva.